createdAt,value
2022-11-05T00:07:07.226Z,12.00
2022-11-05T00:17:12.191Z,10.87
2022-11-05T00:27:16.764Z,11.00
2022-11-05T00:37:18.880Z,12.60
2022-11-05T00:47:45.944Z,10.83
2022-11-05T00:57:48.327Z,11.93
2022-11-05T01:07:53.378Z,11.13
2022-11-05T01:17:57.836Z,10.57
2022-11-05T01:28:03.074Z,12.30
2022-11-05T01:38:08.564Z,11.57
2022-11-05T01:48:30.830Z,11.33
2022-11-05T01:58:49.293Z,11.77
2022-11-05T02:09:18.345Z,11.87
2022-11-05T02:19:44.991Z,11.97
2022-11-05T02:29:59.743Z,12.33
2022-11-05T02:40:16.991Z,12.40
2022-11-05T02:50:27.406Z,11.90
2022-11-05T03:00:53.011Z,12.57
2022-11-05T03:11:21.295Z,12.60
2022-11-05T03:21:29.336Z,12.83
2022-11-05T03:31:31.481Z,13.43
2022-11-05T03:41:33.975Z,12.80
2022-11-05T03:51:49.974Z,13.97
2022-11-05T04:01:55.606Z,12.40
2022-11-05T04:12:18.770Z,12.67
2022-11-05T04:22:39.994Z,13.83
2022-11-05T04:33:06.110Z,13.07
2022-11-05T04:43:15.059Z,15.17
2022-11-05T04:53:17.456Z,14.40
2022-11-05T05:03:26.619Z,14.73
2022-11-05T05:13:28.550Z,15.87
2022-11-05T05:23:38.650Z,13.40
2022-11-05T05:33:40.757Z,16.40
2022-11-05T05:43:46.500Z,20.27
2022-11-05T05:53:48.568Z,22.60
2022-11-05T06:03:50.682Z,22.13
2022-11-05T06:13:52.749Z,20.40
2022-11-05T06:23:55.140Z,20.63
2022-11-05T06:34:01.622Z,21.33
2022-11-05T06:44:03.699Z,20.17
2022-11-05T06:54:08.317Z,17.33
2022-11-05T07:04:12.312Z,16.93
2022-11-05T07:14:18.900Z,17.23
2022-11-05T07:24:22.288Z,14.77
2022-11-05T07:34:29.473Z,16.17
2022-11-05T07:44:34.535Z,16.50
2022-11-05T07:54:36.951Z,16.43
2022-11-05T08:04:42.621Z,14.67
2022-11-05T08:14:47.048Z,16.37
2022-11-05T08:24:49.082Z,16.63
2022-11-05T08:34:56.150Z,17.23
2022-11-05T08:44:58.627Z,15.47
2022-11-05T08:55:05.630Z,23.35
2022-11-05T09:05:10.385Z,11.37
2022-11-05T09:15:27.115Z,16.27
2022-11-05T09:25:33.693Z,17.83
2022-11-05T09:35:41.744Z,18.40
2022-11-05T09:45:52.907Z,19.53
2022-11-05T09:55:57.004Z,19.40
2022-11-05T10:06:07.625Z,18.87
2022-11-05T10:16:21.620Z,19.83
2022-11-05T10:26:30.014Z,19.70
2022-11-05T10:36:35.298Z,21.10
2022-11-05T10:47:09.557Z,18.53
2022-11-05T10:57:50.427Z,19.07
2022-11-05T11:07:58.513Z,21.37
2022-11-05T11:18:39.859Z,23.33
2022-11-05T11:28:51.125Z,20.53
2022-11-05T11:39:04.412Z,22.60
2022-11-05T11:49:12.590Z,23.73
2022-11-05T11:59:54.028Z,23.33
2022-11-05T12:10:10.413Z,24.23
2022-11-05T12:20:34.742Z,29.73
2022-11-05T12:30:51.771Z,23.47
2022-11-05T12:41:18.892Z,25.10
2022-11-05T12:51:31.612Z,28.90
2022-11-05T13:01:42.529Z,28.50
2022-11-05T13:12:13.903Z,31.77
2022-11-05T13:22:30.115Z,34.50
2022-11-05T13:32:35.838Z,33.80
2022-11-05T13:42:58.165Z,49.85
2022-11-05T13:53:23.712Z,34.03
2022-11-05T14:03:30.546Z,36.23
2022-11-05T14:14:01.082Z,36.87
2022-11-05T14:24:24.061Z,36.87
2022-11-05T14:44:01.498Z,35.13
2022-11-05T14:54:23.244Z,33.57
2022-11-05T15:04:33.504Z,32.27
2022-11-05T15:14:55.150Z,31.10
2022-11-05T15:24:59.511Z,25.93
2022-11-05T15:35:28.049Z,28.67
2022-11-05T15:45:32.526Z,29.07
2022-11-05T15:55:48.715Z,29.33
2022-11-05T16:05:51.269Z,31.70
2022-11-05T16:15:59.607Z,32.07
2022-11-05T16:26:03.943Z,30.60
2022-11-05T16:36:13.141Z,30.80
2022-11-05T16:46:15.673Z,30.30
2022-11-05T16:56:21.632Z,31.13
2022-11-05T17:06:23.634Z,31.03
2022-11-05T17:16:28.336Z,26.20
2022-11-05T17:26:30.480Z,26.77
2022-11-05T17:36:35.716Z,25.80
2022-11-05T17:46:40.229Z,27.53
2022-11-05T17:56:45.007Z,28.03
2022-11-05T18:06:51.771Z,29.47
2022-11-05T18:17:01.839Z,29.97
2022-11-05T18:27:06.117Z,30.10
2022-11-05T18:37:14.790Z,28.00
2022-11-05T18:47:19.906Z,24.47
2022-11-05T18:57:22.010Z,21.60
2022-11-05T19:07:27.977Z,18.43
2022-11-05T19:17:33.902Z,17.70
2022-11-05T19:27:41.853Z,16.70
2022-11-05T19:37:47.139Z,13.90
2022-11-05T19:47:50.407Z,12.87
2022-11-05T19:57:53.738Z,14.87
2022-11-05T20:07:56.463Z,16.23
2022-11-05T20:18:00.932Z,17.17
2022-11-05T20:28:03.100Z,16.57
2022-11-05T20:38:09.293Z,15.73
2022-11-05T20:48:14.237Z,16.03
2022-11-05T20:58:19.717Z,15.47
2022-11-05T21:08:22.642Z,15.83
2022-11-05T21:18:32.740Z,15.73
2022-11-05T21:28:35.436Z,15.27
2022-11-05T21:38:43.804Z,15.23
2022-11-05T21:48:49.935Z,15.57
2022-11-05T21:59:15.168Z,16.33
2022-11-05T22:09:20.833Z,15.27
2022-11-05T22:19:24.975Z,15.17
2022-11-05T22:29:29.725Z,14.83
2022-11-05T22:39:39.270Z,14.00
2022-11-05T22:49:43.480Z,13.87
2022-11-05T22:59:45.591Z,13.77
2022-11-05T23:10:10.407Z,12.60
2022-11-05T23:20:39.438Z,14.23
2022-11-05T23:31:03.570Z,12.33
2022-11-05T23:41:24.225Z,11.13
2022-11-05T23:51:31.040Z,11.90
